Time;durP1;ratioP1;P1;durP2;ratioP2;P2;SDS_P1;SDS_P2;PMS_P1;PMS_P2;Temp;Humidity;BMP_temperature;BMP_pressure;BME280_temperature;BME280_humidity;BME280_pressure;Samples;Min_cycle;Max_cycle;Signal;HPM_P1;HPM_P2
2023/01/14 00:02:24;;;;;;;3.25;1.17;;;;;;;2.11;100.00;95911.19;4996978;28;20061;-77
2023/01/14 00:04:49;;;;;;;3.25;1.27;;;;;;;2.11;100.00;95906.00;4983805;28;20061;-78
2023/01/14 00:07:16;;;;;;;6.22;1.20;;;;;;;2.04;100.00;95902.66;4990612;28;20046;-76
2023/01/14 00:09:42;;;;;;;2.60;1.40;;;;;;;2.00;100.00;95899.69;5006288;28;20049;-77
2023/01/14 00:12:08;;;;;;;8.60;1.95;;;;;;;1.99;100.00;95894.69;5006883;28;20423;-77
2023/01/14 00:14:34;;;;;;;3.95;1.50;;;;;;;2.04;100.00;95895.66;4990597;28;20058;-77
2023/01/14 00:17:00;;;;;;;3.05;1.25;;;;;;;2.15;100.00;95896.81;4999843;28;20548;-77
2023/01/14 00:19:26;;;;;;;4.43;1.38;;;;;;;2.05;100.00;95891.25;4999543;28;20397;-76
2023/01/14 00:21:54;;;;;;;3.92;1.60;;;;;;;2.00;100.00;95889.28;4986293;28;20045;-76
2023/01/14 00:24:21;;;;;;;3.22;1.50;;;;;;;2.06;100.00;95892.88;5008854;28;20042;-75
2023/01/14 00:26:52;;;;;;;5.97;1.60;;;;;;;2.09;100.00;95892.44;5001985;28;20572;-76
2023/01/14 00:29:21;;;;;;;5.25;1.23;;;;;;;2.21;100.00;95901.19;4985145;28;20046;-74
2023/01/14 00:31:47;;;;;;;8.00;1.33;;;;;;;2.32;100.00;95901.56;5000367;28;20037;-75
2023/01/14 00:34:14;;;;;;;4.75;1.45;;;;;;;2.21;100.00;95903.78;5007215;28;20046;-77
2023/01/14 00:36:39;;;;;;;15.80;1.30;;;;;;;2.33;100.00;95892.72;4994278;28;20043;-76
2023/01/14 00:39:05;;;;;;;8.75;1.17;;;;;;;2.29;100.00;95901.97;4997583;28;20054;-77
2023/01/14 00:41:30;;;;;;;6.10;1.45;;;;;;;2.28;100.00;95895.16;5000628;28;20470;-76
2023/01/14 00:43:59;;;;;;;7.57;1.30;;;;;;;2.34;100.00;95905.53;4982115;28;20505;-77
2023/01/14 00:46:25;;;;;;;4.57;1.30;;;;;;;2.34;100.00;95904.72;5005001;28;20764;-77
2023/01/14 00:48:51;;;;;;;8.57;1.55;;;;;;;2.25;100.00;95907.56;5011750;28;20033;-76
2023/01/14 00:51:18;;;;;;;6.55;1.40;;;;;;;2.28;100.00;95900.38;5005454;28;20072;-77
2023/01/14 00:53:47;;;;;;;4.18;1.40;;;;;;;2.27;100.00;95898.75;5006084;28;20050;-76
2023/01/14 00:56:14;;;;;;;2.72;0.88;;;;;;;2.31;100.00;95899.94;5011725;28;20104;-76
2023/01/14 00:58:40;;;;;;;5.07;1.30;;;;;;;2.20;100.00;95909.19;4994978;28;20046;-77
2023/01/14 01:01:06;;;;;;;2.75;1.00;;;;;;;2.32;100.00;95917.13;4990184;28;20106;-77
2023/01/14 01:03:37;;;;;;;5.63;1.15;;;;;;;2.35;100.00;95916.72;4973610;28;20051;-77
2023/01/14 01:06:02;;;;;;;3.08;1.05;;;;;;;2.28;100.00;95913.34;5002962;28;20045;-77
2023/01/14 01:08:28;;;;;;;7.80;1.40;;;;;;;2.20;100.00;95906.59;4990996;28;20042;-76
2023/01/14 01:10:54;;;;;;;4.47;1.33;;;;;;;2.14;100.00;95910.81;5006926;28;20038;-77
2023/01/14 01:13:23;;;;;;;10.70;1.50;;;;;;;2.20;100.00;95915.19;5001676;28;20522;-76
2023/01/14 01:15:49;;;;;;;6.78;1.27;;;;;;;2.27;100.00;95909.16;4987688;28;20522;-77
2023/01/14 01:18:15;;;;;;;10.43;2.03;;;;;;;2.23;100.00;95909.56;5004529;28;20046;-76
2023/01/14 01:20:42;;;;;;;9.88;1.92;;;;;;;2.20;100.00;95910.00;5004798;28;20066;-76
2023/01/14 01:23:11;;;;;;;5.22;1.38;;;;;;;2.23;100.00;95914.75;5005386;28;20073;-77
2023/01/14 01:25:36;;;;;;;5.30;1.08;;;;;;;2.24;100.00;95926.75;4998274;28;20507;-77
2023/01/14 01:28:03;;;;;;;7.07;1.40;;;;;;;2.19;100.00;95918.78;5004295;28;20172;-76
2023/01/14 01:30:28;;;;;;;5.53;1.45;;;;;;;2.18;100.00;95924.97;5003451;28;20045;-76
2023/01/14 01:32:54;;;;;;;4.63;1.20;;;;;;;2.23;100.00;95914.75;5002867;28;20068;-77
2023/01/14 01:35:23;;;;;;;4.80;1.60;;;;;;;2.18;100.00;95917.16;4998823;28;20038;-77
2023/01/14 01:37:50;;;;;;;8.95;1.40;;;;;;;2.07;100.00;95915.25;4976204;28;20045;-76
2023/01/14 01:40:15;;;;;;;8.43;2.17;;;;;;;2.11;100.00;95915.63;4984545;28;20041;-77
2023/01/14 01:42:56;;;;;;;8.88;1.25;;;;;;;2.13;100.00;95914.41;5005831;28;20121;-77
2023/01/14 01:45:43;;;;;;;8.18;1.40;;;;;;;2.12;100.00;95922.41;4996255;28;20614;-78
2023/01/14 01:48:22;;;;;;;10.40;1.75;;;;;;;2.10;100.00;95929.59;4983830;28;20089;-77
2023/01/14 01:50:53;;;;;;;13.48;1.90;;;;;;;2.07;100.00;95923.03;5004539;28;20109;-76
2023/01/14 01:53:20;;;;;;;8.77;1.55;;;;;;;2.08;100.00;95929.78;4999892;28;20046;-77
2023/01/14 01:55:50;;;;;;;8.13;1.58;;;;;;;2.03;100.00;95929.63;5006125;28;20045;-77
2023/01/14 01:58:16;;;;;;;4.68;1.10;;;;;;;2.18;100.00;95930.16;5013405;28;20072;-77
2023/01/14 02:00:42;;;;;;;7.13;1.17;;;;;;;2.24;100.00;95944.94;4979270;28;20428;-76
2023/01/14 02:03:17;;;;;;;9.00;1.35;;;;;;;2.18;100.00;95943.13;4992517;28;20108;-76
2023/01/14 02:05:43;;;;;;;19.60;2.72;;;;;;;2.13;100.00;95940.38;5001549;28;20510;-77
2023/01/14 02:08:09;;;;;;;15.65;2.33;;;;;;;2.22;100.00;95949.53;5004875;28;20408;-77
2023/01/14 02:10:51;;;;;;;11.70;1.25;;;;;;;2.25;100.00;95954.28;5008653;28;20050;-77
2023/01/14 02:13:23;;;;;;;9.93;1.83;;;;;;;2.35;100.00;95948.66;5001325;28;20042;-77
2023/01/14 02:15:56;;;;;;;12.32;1.70;;;;;;;2.37;100.00;95951.06;4987249;28;20096;-76
2023/01/14 02:18:37;;;;;;;7.00;1.38;;;;;;;2.41;100.00;95957.44;5003135;28;20096;-77
2023/01/14 02:21:16;;;;;;;3.45;1.10;;;;;;;2.47;100.00;95958.41;4985432;28;20045;-77
2023/01/14 02:23:41;;;;;;;5.95;1.17;;;;;;;2.48;100.00;95958.22;4999213;28;20501;-77
2023/01/14 02:26:46;;;;;;;10.90;1.63;;;;;;;2.40;100.00;95950.69;4996721;28;20054;-76
2023/01/14 02:29:34;;;;;;;9.60;1.55;;;;;;;2.30;100.00;95958.09;4998519;28;20493;-76
2023/01/14 02:32:15;;;;;;;6.97;1.75;;;;;;;2.47;100.00;95961.84;4991349;28;20045;-76
2023/01/14 02:35:05;;;;;;;4.03;0.95;;;;;;;2.44;100.00;95962.22;4981715;28;20047;-77
2023/01/14 02:37:41;;;;;;;4.88;1.48;;;;;;;2.40;100.00;95961.84;4995073;28;20516;-76
2023/01/14 02:40:20;;;;;;;4.80;0.98;;;;;;;2.39;100.00;95964.66;5006009;28;20408;-76
2023/01/14 02:45:55;;;;;;;;;;;;;;;2.36;100.00;95965.06;4987226;28;20041;-77
2023/01/14 02:48:23;;;;;;;12.70;1.30;;;;;;;2.32;100.00;95953.50;4979193;28;19929;-76
2023/01/14 02:50:50;;;;;;;0.70;0.70;;;;;;;2.39;100.00;95954.25;4979285;28;20030;-77
2023/01/14 02:53:18;;;;;;;5.25;1.13;;;;;;;2.36;100.00;95957.28;5008394;28;20076;-76
2023/01/14 02:55:44;;;;;;;5.88;0.93;;;;;;;2.39;100.00;95956.88;4995641;28;20041;-77
2023/01/14 02:58:38;;;;;;;3.70;1.50;;;;;;;2.41;100.00;95941.84;4999818;28;20057;-77
2023/01/14 03:01:24;;;;;;;5.82;1.02;;;;;;;2.40;100.00;95951.47;4974642;28;20042;-76
2023/01/14 03:04:01;;;;;;;3.40;1.23;;;;;;;2.46;100.00;95955.03;4963994;28;20058;-76
2023/01/14 03:06:47;;;;;;;5.43;1.17;;;;;;;2.60;100.00;95961.75;5004439;28;20458;-76
2023/01/14 03:09:36;;;;;;;2.75;1.15;;;;;;;2.62;100.00;95947.78;5000990;28;20522;-76
2023/01/14 03:12:20;;;;;;;10.73;1.30;;;;;;;2.69;100.00;95964.13;5004604;28;20413;-76
2023/01/14 03:14:50;;;;;;;2.50;0.98;;;;;;;2.74;100.00;95962.50;5014091;28;20111;-76
2023/01/14 03:17:33;;;;;;;1.70;0.98;;;;;;;2.74;100.00;95959.09;5009576;28;20042;-77
2023/01/14 03:20:08;;;;;;;2.80;0.98;;;;;;;2.79;100.00;95956.66;4989841;28;20053;-77
2023/01/14 03:22:34;;;;;;;3.03;1.02;;;;;;;2.77;100.00;95950.88;4990531;28;20046;-77
2023/01/14 03:25:02;;;;;;;3.55;1.20;;;;;;;2.82;100.00;95956.25;4998207;28;20417;-77
2023/01/14 03:27:33;;;;;;;2.50;1.20;;;;;;;2.80;100.00;95945.25;5010384;28;20049;-76
2023/01/14 03:30:24;;;;;;;2.92;0.80;;;;;;;2.85;100.00;95948.03;5006939;28;20034;-77
2023/01/14 03:32:58;;;;;;;3.65;0.90;;;;;;;2.80;100.00;95950.44;4995412;28;20038;-76
2023/01/14 03:35:37;;;;;;;4.72;1.00;;;;;;;2.75;100.00;95947.69;5003672;28;20106;-76
2023/01/14 03:38:30;;;;;;;3.03;0.90;;;;;;;2.84;100.00;95936.03;4977436;28;20042;-77
2023/01/14 03:40:58;;;;;;;6.70;0.90;;;;;;;2.83;100.00;95937.06;4986295;28;20043;-76
2023/01/14 03:43:31;;;;;;;4.85;1.35;;;;;;;2.80;100.00;95940.06;5004300;28;20057;-77
2023/01/14 03:45:57;;;;;;;3.42;1.25;;;;;;;2.81;100.00;95933.84;5000120;28;20042;-77
2023/01/14 03:48:24;;;;;;;4.03;1.05;;;;;;;2.85;100.00;95937.63;5001297;28;20038;-76
2023/01/14 03:50:59;;;;;;;1.70;0.68;;;;;;;2.85;100.00;95937.63;5003359;28;20061;-76
2023/01/14 03:53:47;;;;;;;3.55;1.15;;;;;;;2.83;100.00;95929.25;5009414;28;20045;-76
2023/01/14 03:56:38;;;;;;;2.88;0.60;;;;;;;2.83;100.00;95929.25;5001941;28;20049;-76
2023/01/14 03:59:10;;;;;;;2.92;1.10;;;;;;;2.79;100.00;95925.47;4999329;28;20041;-77
2023/01/14 04:01:56;;;;;;;6.05;1.20;;;;;;;2.77;100.00;95932.66;4991445;28;20045;-77
2023/01/14 04:04:24;;;;;;;2.55;0.88;;;;;;;2.71;100.00;95941.31;5003871;28;20554;-77
2023/01/14 04:06:51;;;;;;;4.25;0.98;;;;;;;2.68;100.00;95941.75;4995801;28;20085;-76
2023/01/14 04:09:16;;;;;;;6.80;1.05;;;;;;;2.55;100.00;95932.22;4982239;28;20035;-77
2023/01/14 04:11:42;;;;;;;2.88;1.00;;;;;;;2.59;100.00;95939.38;4990937;28;20522;-77
2023/01/14 04:17:09;;;;;;;4.80;1.08;;;;;;;2.45;100.00;95943.03;4949017;29;20524;-76
2023/01/14 04:19:34;;;;;;;2.22;1.02;;;;;;;2.58;100.00;95932.56;4997457;28;20073;-76
2023/01/14 04:22:00;;;;;;;3.10;0.65;;;;;;;2.49;100.00;95939.03;5006230;28;20413;-78
2023/01/14 04:24:25;;;;;;;5.38;1.35;;;;;;;2.42;100.00;95943.47;5010058;28;20102;-76
2023/01/14 04:26:51;;;;;;;2.67;0.98;;;;;;;2.47;100.00;95945.44;4998909;28;20496;-76
2023/01/14 04:29:16;;;;;;;5.80;1.13;;;;;;;2.43;100.00;95942.47;5003368;28;20046;-76
2023/01/14 04:31:42;;;;;;;5.18;1.73;;;;;;;2.41;100.00;95937.47;4982473;28;20717;-77
2023/01/14 04:34:08;;;;;;;3.72;0.90;;;;;;;2.31;100.00;95936.31;4986569;28;20129;-76
2023/01/14 04:36:34;;;;;;;5.68;1.55;;;;;;;2.42;100.00;95948.66;4987645;28;20049;-77
2023/01/14 04:39:00;;;;;;;3.47;1.02;;;;;;;2.41;100.00;95944.44;5009114;28;20041;-77
2023/01/14 04:44:09;;;;;;;10.43;1.40;;;;;;;2.41;100.00;95941.84;4997176;28;20046;-76
2023/01/14 04:46:35;;;;;;;5.13;1.10;;;;;;;2.45;100.00;95945.63;4994992;28;20064;-77
2023/01/14 04:49:01;;;;;;;6.10;1.13;;;;;;;2.39;100.00;95933.47;4999814;28;20480;-77
2023/01/14 04:51:26;;;;;;;7.45;1.35;;;;;;;2.34;100.00;95935.91;4985131;28;20042;-77
2023/01/14 04:53:52;;;;;;;2.47;1.00;;;;;;;2.25;100.00;95943.91;4995265;28;20034;-77
2023/01/14 04:56:17;;;;;;;3.10;1.17;;;;;;;2.37;100.00;95945.88;4986622;28;20125;-77
2023/01/14 04:58:43;;;;;;;5.57;1.13;;;;;;;2.29;100.00;95940.94;4999939;28;20077;-78
2023/01/14 05:01:08;;;;;;;2.92;1.15;;;;;;;2.35;100.00;95942.69;5009881;28;20092;-77
2023/01/14 05:03:34;;;;;;;7.25;1.00;;;;;;;2.38;100.00;95942.28;5000113;28;20042;-78
2023/01/14 05:06:00;;;;;;;5.65;1.55;;;;;;;2.40;100.00;95945.47;5001095;28;20038;-76
2023/01/14 05:08:25;;;;;;;10.15;1.98;;;;;;;2.36;100.00;95944.28;5006294;28;20045;-77
2023/01/14 05:10:51;;;;;;;3.25;1.00;;;;;;;2.40;100.00;95955.88;4994325;28;20039;-77
2023/01/14 05:13:17;;;;;;;7.53;1.40;;;;;;;2.30;100.00;95935.53;4976208;28;20042;-77
2023/01/14 05:15:44;;;;;;;5.43;1.08;;;;;;;2.29;100.00;95943.53;4989991;28;20056;-77
2023/01/14 05:18:12;;;;;;;5.07;1.45;;;;;;;2.30;100.00;95940.72;5010248;28;20049;-76
2023/01/14 05:20:39;;;;;;;5.20;1.30;;;;;;;2.35;100.00;95947.88;4985986;28;20042;-76
2023/01/14 05:23:15;;;;;;;2.00;1.20;;;;;;;2.35;100.00;95942.69;5004093;28;20049;-77
2023/01/14 05:25:42;;;;;;;2.08;1.20;;;;;;;2.36;100.00;95939.09;5003157;28;20076;-77
2023/01/14 05:28:10;;;;;;;5.55;1.52;;;;;;;2.37;100.00;95940.66;4995373;28;20096;-77
2023/01/14 05:30:36;;;;;;;8.75;1.58;;;;;;;2.34;100.00;95931.50;4999386;28;20042;-76
2023/01/14 05:33:02;;;;;;;3.65;1.00;;;;;;;2.36;100.00;95933.91;4992227;28;20049;-76
2023/01/14 05:35:28;;;;;;;3.67;1.20;;;;;;;2.28;100.00;95936.72;4991610;28;20125;-77
2023/01/14 05:37:53;;;;;;;2.80;1.25;;;;;;;2.16;100.00;95933.97;5002879;28;20050;-78
2023/01/14 05:40:19;;;;;;;6.68;1.25;;;;;;;2.08;100.00;95924.59;4986976;28;20054;-76
2023/01/14 05:45:38;;;;;;;3.65;1.15;;;;;;;1.98;100.00;95921.66;5000891;28;20077;-77
2023/01/14 05:48:04;;;;;;;;;;;;;;;1.88;100.00;95917.69;4996697;28;20038;-77
2023/01/14 05:50:30;;;;;;;3.97;1.10;;;;;;;1.82;100.00;95918.47;4994530;28;19925;-77
2023/01/14 05:52:55;;;;;;;9.43;1.30;;;;;;;1.87;100.00;95921.28;4982767;28;20169;-77
2023/01/14 05:55:21;;;;;;;7.80;1.30;;;;;;;1.83;100.00;95919.31;4993144;28;20409;-76
2023/01/14 05:57:46;;;;;;;5.47;1.35;;;;;;;1.84;100.00;95916.50;4996367;28;20129;-76
2023/01/14 06:06:20;;;;;;;5.53;1.20;;;;;;;1.64;100.00;95915.72;5001313;28;20069;-77
2023/01/14 06:08:27;;;;;;;8.25;1.48;;;;;;;1.09;100.00;95914.16;5002691;28;20046;-75
2023/01/14 06:10:53;;;;;;;6.80;1.40;;;;;;;1.00;100.00;95910.19;5010606;28;20416;-76
2023/01/14 06:13:22;;;;;;;3.85;1.52;;;;;;;0.80;100.00;95916.16;5011515;28;20053;-77
2023/01/14 06:15:51;;;;;;;6.60;1.40;;;;;;;0.70;100.00;95910.56;5003423;28;20091;-77
2023/01/14 06:18:21;;;;;;;7.25;1.42;;;;;;;0.60;100.00;95917.91;4996561;28;20089;-76
2023/01/14 06:20:48;;;;;;;2.97;1.02;;;;;;;0.44;100.00;95917.28;5005967;28;20583;-77
2023/01/14 06:23:14;;;;;;;5.10;1.10;;;;;;;0.48;100.00;95918.47;5003462;28;20046;-77
2023/01/14 06:25:42;;;;;;;2.67;0.95;;;;;;;0.42;100.00;95914.09;5005003;28;20046;-76
2023/01/14 06:28:08;;;;;;;7.22;1.35;;;;;;;0.21;100.00;95919.41;5011434;28;20038;-77
2023/01/14 06:30:34;;;;;;;13.18;1.15;;;;;;;0.09;100.00;95917.34;5006301;28;20068;-77
2023/01/14 06:32:59;;;;;;;3.90;0.90;;;;;;;0.01;100.00;95922.69;5003136;28;20100;-77
2023/01/14 06:35:25;;;;;;;5.45;1.30;;;;;;;-0.07;100.00;95921.06;5007981;28;20082;-77
2023/01/14 06:37:50;;;;;;;4.18;1.40;;;;;;;-0.10;100.00;95920.66;4997212;28;20113;-75
2023/01/14 06:40:16;;;;;;;3.53;1.35;;;;;;;-0.12;100.00;95922.63;4995590;28;20038;-76
2023/01/14 06:42:42;;;;;;;5.05;1.00;;;;;;;-0.23;100.00;95921.38;5003832;28;20060;-76
2023/01/14 06:45:10;;;;;;;6.30;1.17;;;;;;;-0.38;100.00;95913.75;4988066;28;20054;-76
2023/01/14 06:47:36;;;;;;;4.50;1.10;;;;;;;-0.45;100.00;95918.06;5006145;28;20432;-76
2023/01/14 06:50:03;;;;;;;3.70;1.60;;;;;;;-0.51;100.00;95908.50;5012501;28;20042;-76
2023/01/14 06:52:28;;;;;;;5.90;1.35;;;;;;;-0.49;100.00;95909.09;4990340;28;20054;-78
2023/01/14 06:54:55;;;;;;;6.07;1.23;;;;;;;-0.55;100.00;95903.72;4998815;28;20080;-77
2023/01/14 06:57:25;;;;;;;7.25;1.40;;;;;;;-0.63;100.00;95901.25;5001785;28;20042;-77
2023/01/14 06:59:51;;;;;;;7.45;1.40;;;;;;;-0.66;100.00;95906.81;4993958;28;20404;-77
2023/01/14 07:02:17;;;;;;;6.05;1.45;;;;;;;-0.73;100.00;95905.97;4995116;28;20044;-75
2023/01/14 07:04:43;;;;;;;10.27;1.80;;;;;;;-0.74;100.00;95904.38;5016323;28;20082;-75
2023/01/14 07:07:09;;;;;;;11.90;1.83;;;;;;;-0.79;100.00;95911.88;4999344;28;20069;-74
2023/01/14 07:09:35;;;;;;;1.95;1.08;;;;;;;-0.82;100.00;95901.91;5031054;28;20082;-74
2023/01/14 07:12:00;;;;;;;4.88;1.50;;;;;;;-0.79;100.00;95896.38;5029087;28;20082;-73
2023/01/14 07:14:26;;;;;;;5.90;1.50;;;;;;;-0.70;100.00;95895.25;5026410;28;20122;-73
2023/01/14 07:16:51;;;;;;;7.07;1.60;;;;;;;-0.63;100.00;95884.94;5026997;28;20061;-74
2023/01/14 07:19:17;;;;;;;6.00;1.60;;;;;;;-0.62;100.00;95874.41;5029858;28;20056;-73
2023/01/14 07:21:43;;;;;;;4.82;1.48;;;;;;;-0.50;100.00;95876.47;5025102;28;20093;-73
2023/01/14 07:24:10;;;;;;;3.00;1.23;;;;;;;-0.60;100.00;95864.69;5015438;28;20074;-73
2023/01/14 07:26:36;;;;;;;2.28;1.15;;;;;;;-0.39;100.00;95870.75;5014888;28;20050;-79
2023/01/14 07:29:03;;;;;;;8.25;1.38;;;;;;;-0.42;100.00;95853.03;4993185;28;20065;-78
2023/01/14 07:31:28;;;;;;;4.82;1.25;;;;;;;-0.31;100.00;95852.50;4998815;28;20065;-77
2023/01/14 07:33:54;;;;;;;5.05;1.40;;;;;;;-0.34;100.00;95852.91;5011571;28;20662;-77
2023/01/14 07:36:19;;;;;;;3.03;1.38;;;;;;;-0.32;100.00;95850.91;5010011;28;20050;-77
2023/01/14 07:38:45;;;;;;;3.40;1.50;;;;;;;-0.31;100.00;95842.16;5005576;28;20049;-77
2023/01/14 07:41:13;;;;;;;5.70;1.63;;;;;;;-0.05;100.00;95840.66;5009930;28;20068;-76
2023/01/14 07:43:38;;;;;;;7.60;1.45;;;;;;;0.16;100.00;95840.53;4983340;28;20500;-76
2023/01/14 07:46:07;;;;;;;5.95;1.08;;;;;;;0.39;100.00;95841.16;4996540;28;20043;-76
2023/01/14 07:48:33;;;;;;;6.85;1.50;;;;;;;0.31;100.00;95844.75;5002749;28;20050;-76
2023/01/14 07:51:02;;;;;;;4.47;1.38;;;;;;;0.31;100.00;95842.16;5008042;28;20353;-75
2023/01/14 07:53:27;;;;;;;4.90;1.45;;;;;;;0.31;100.00;95844.75;5005389;28;20042;-76
2023/01/14 07:55:53;;;;;;;6.75;1.80;;;;;;;0.39;100.00;95831.63;4998024;28;20044;-76
2023/01/14 07:58:18;;;;;;;3.92;1.33;;;;;;;0.42;100.00;95831.22;4994444;28;20073;-76
2023/01/14 08:00:44;;;;;;;4.47;1.48;;;;;;;0.58;100.00;95824.09;4993071;28;20068;-75
2023/01/14 08:03:09;;;;;;;6.70;1.67;;;;;;;1.11;100.00;95834.44;5013952;28;20419;-75
2023/01/14 08:05:35;;;;;;;9.07;1.60;;;;;;;1.51;100.00;95829.16;4998664;28;20463;-76
2023/01/14 08:08:01;;;;;;;4.97;1.70;;;;;;;1.68;100.00;95833.91;4998185;28;20066;-76
2023/01/14 08:10:26;;;;;;;6.95;1.50;;;;;;;1.72;100.00;95835.09;5000615;28;20071;-77
2023/01/14 08:12:52;;;;;;;7.07;1.52;;;;;;;1.70;100.00;95832.69;5009076;28;20037;-77
2023/01/14 08:15:18;;;;;;;8.98;1.40;;;;;;;1.76;100.00;95825.88;4977966;28;20046;-76
2023/01/14 08:17:43;;;;;;;6.13;1.70;;;;;;;1.71;100.00;95833.47;4996835;28;20050;-75
2023/01/14 08:20:10;;;;;;;4.95;1.58;;;;;;;1.84;100.00;95833.44;4995888;28;20047;-77
2023/01/14 08:22:35;;;;;;;4.28;1.35;;;;;;;1.85;100.00;95824.66;4983338;28;20046;-76
2023/01/14 08:25:01;;;;;;;8.00;2.20;;;;;;;1.73;100.00;95831.50;5013794;28;20042;-76
2023/01/14 08:27:27;;;;;;;11.55;1.95;;;;;;;1.97;100.00;95836.97;5006124;28;20049;-76
2023/01/14 08:29:54;;;;;;;3.92;1.30;;;;;;;2.11;100.00;95838.50;5001243;28;20046;-76
2023/01/14 08:32:19;;;;;;;4.70;1.60;;;;;;;2.15;100.00;95829.31;5004535;28;20046;-77
2023/01/14 08:34:45;;;;;;;8.05;1.90;;;;;;;2.33;100.00;95831.22;5000691;28;20125;-76
2023/01/14 08:37:11;;;;;;;14.35;2.83;;;;;;;2.39;100.00;95830.38;5007048;28;20531;-77
2023/01/14 08:39:37;;;;;;;10.80;2.88;;;;;;;2.44;100.00;95821.94;5004664;28;20034;-76
2023/01/14 08:42:02;;;;;;;10.20;2.92;;;;;;;2.50;100.00;95813.34;4995823;28;20034;-77
2023/01/14 08:44:28;;;;;;;10.73;2.45;;;;;;;2.58;100.00;95807.84;5010738;28;20061;-76
2023/01/14 08:46:54;;;;;;;10.20;2.35;;;;;;;2.66;100.00;95809.41;5007009;28;20046;-77
2023/01/14 08:49:19;;;;;;;9.52;2.40;;;;;;;2.68;100.00;95807.38;5014430;28;20431;-77
2023/01/14 08:51:45;;;;;;;4.55;1.92;;;;;;;2.78;100.00;95791.31;4991925;28;20042;-76
2023/01/14 08:54:10;;;;;;;10.30;2.28;;;;;;;2.84;100.00;95795.66;4979006;28;20038;-76
2023/01/14 08:56:36;;;;;;;8.38;1.95;;;;;;;2.87;100.00;95787.44;5012310;28;20041;-77
2023/01/14 08:59:02;;;;;;;10.60;2.38;;;;;;;3.03;100.00;95785.31;5004918;28;20042;-77
2023/01/14 09:01:29;;;;;;;9.95;2.38;;;;;;;3.15;100.00;95790.59;4991769;28;20097;-77
2023/01/14 09:03:57;;;;;;;9.45;2.20;;;;;;;3.22;100.00;95781.72;5005395;28;20384;-76
2023/01/14 09:06:23;;;;;;;11.30;2.35;;;;;;;3.31;100.00;95776.25;5013625;28;20104;-77
2023/01/14 09:17:12;;;;;;;8.75;1.90;;;;;;;3.61;100.00;95752.88;4992799;28;20038;-78
2023/01/14 09:20:08;;;;;;;12.20;3.25;;;;;;;3.70;100.00;95755.97;4994739;28;20050;-77
2023/01/14 09:22:33;;;;;;;3.05;1.48;;;;;;;3.85;100.00;95763.41;4974530;28;20625;-77
2023/01/14 09:24:59;;;;;;;12.30;2.22;;;;;;;3.97;100.00;95751.22;5005108;28;20137;-78
2023/01/14 09:27:25;;;;;;;9.38;1.90;;;;;;;4.12;100.00;95753.41;4977109;28;20047;-76
2023/01/14 09:29:51;;;;;;;6.03;2.30;;;;;;;4.27;100.00;95756.41;4976762;28;20042;-75
2023/01/14 09:32:17;;;;;;;5.82;1.70;;;;;;;4.46;100.00;95764.94;4979633;28;20048;-75
2023/01/14 09:34:49;;;;;;;2.72;1.45;;;;;;;4.57;100.00;95757.34;4992649;28;20038;-76
2023/01/14 09:37:20;;;;;;;2.53;1.35;;;;;;;4.77;100.00;95764.88;4994641;28;20046;-76
2023/01/14 09:39:47;;;;;;;6.05;1.63;;;;;;;4.95;100.00;95772.59;4985988;28;20049;-75
2023/01/14 09:42:18;;;;;;;5.60;1.30;;;;;;;5.10;100.00;95773.94;4956773;28;20038;-75
2023/01/14 09:44:44;;;;;;;5.15;1.23;;;;;;;5.01;100.00;95756.03;5004643;28;20447;-75
2023/01/14 09:47:13;;;;;;;3.58;1.45;;;;;;;5.13;100.00;95752.59;5008756;28;20097;-77
2023/01/14 09:49:39;;;;;;;5.60;1.70;;;;;;;5.40;100.00;95759.97;4994280;28;20034;-75
2023/01/14 09:52:14;;;;;;;5.47;2.00;;;;;;;5.35;100.00;95745.78;4976024;28;20049;-76
2023/01/14 09:54:52;;;;;;;6.47;1.60;;;;;;;5.56;100.00;95738.38;4992304;28;20050;-74
2023/01/14 09:57:24;;;;;;;4.97;1.60;;;;;;;5.68;100.00;95733.88;4996066;28;20053;-76
2023/01/14 10:00:05;;;;;;;3.80;1.45;;;;;;;5.73;100.00;95730.56;4991961;28;20046;-76
2023/01/14 10:02:45;;;;;;;3.50;1.40;;;;;;;5.75;100.00;95733.75;4992472;28;20050;-74
2023/01/14 10:05:28;;;;;;;5.22;1.92;;;;;;;6.15;100.00;95732.13;4981124;28;20436;-76
2023/01/14 10:08:01;;;;;;;5.18;1.55;;;;;;;5.88;100.00;95720.41;4972649;28;20039;-75
2023/01/14 10:10:32;;;;;;;2.83;1.02;;;;;;;6.07;100.00;95721.03;4972471;28;20621;-75
2023/01/14 10:13:03;;;;;;;4.40;1.30;;;;;;;6.07;100.00;95710.59;4972229;28;20051;-75
2023/01/14 10:15:41;;;;;;;3.45;1.67;;;;;;;5.97;100.00;95710.41;4989183;28;20120;-74
2023/01/14 10:18:17;;;;;;;4.05;1.60;;;;;;;5.83;100.00;95714.31;4991753;28;20054;-74
2023/01/14 10:20:54;;;;;;;3.35;1.30;;;;;;;5.87;100.00;95710.22;4985656;28;20051;-75
2023/01/14 10:23:28;;;;;;;2.10;1.30;;;;;;;5.89;100.00;95693.28;4972185;28;20054;-75
2023/01/14 10:25:54;;;;;;;2.50;1.42;;;;;;;5.95;100.00;95675.88;4997868;28;20046;-75
2023/01/14 10:28:29;;;;;;;2.40;1.17;;;;;;;6.37;100.00;95675.53;4987250;28;20042;-75
2023/01/14 10:30:58;;;;;;;2.90;1.50;;;;;;;6.47;100.00;95666.28;4972062;28;20046;-74
2023/01/14 10:33:24;;;;;;;3.25;1.75;;;;;;;6.53;100.00;95660.06;4971762;28;20047;-75
2023/01/14 10:35:56;;;;;;;6.63;2.80;;;;;;;7.09;100.00;95662.66;4968754;28;20045;-75
2023/01/14 10:38:24;;;;;;;5.97;2.10;;;;;;;7.71;100.00;95653.63;4990054;28;20527;-75
2023/01/14 10:40:53;;;;;;;7.82;1.80;;;;;;;8.31;100.00;95641.31;4991435;28;20042;-75
2023/01/14 10:43:30;;;;;;;4.95;1.50;;;;;;;8.33;100.00;95635.81;4982869;28;20121;-75
2023/01/14 10:45:56;;;;;;;5.30;1.50;;;;;;;8.42;100.00;95636.94;4991696;28;20047;-75
2023/01/14 10:48:24;;;;;;;3.00;1.45;;;;;;;8.69;100.00;95625.56;5007250;28;20500;-75
2023/01/14 10:50:51;;;;;;;4.07;1.65;;;;;;;8.92;100.00;95628.84;5002199;28;20043;-75
2023/01/14 10:53:22;;;;;;;3.63;1.33;;;;;;;7.97;100.00;95625.06;4971725;28;20043;-75
2023/01/14 10:56:02;;;;;;;2.35;1.48;;;;;;;7.84;100.00;95620.22;4979912;28;20038;-75
2023/01/14 10:58:36;;;;;;;3.13;1.33;;;;;;;7.70;100.00;95615.41;4973521;28;20042;-77
2023/01/14 11:01:07;;;;;;;4.85;1.52;;;;;;;7.98;100.00;95616.16;4976298;28;20043;-74
2023/01/14 11:03:37;;;;;;;3.45;1.55;;;;;;;8.31;100.00;95603.81;4971699;28;20046;-75
2023/01/14 11:06:21;;;;;;;2.63;1.23;;;;;;;8.43;92.91;95604.44;4984524;28;20099;-75
2023/01/14 11:08:46;;;;;;;1.73;1.08;;;;;;;8.71;94.66;95607.75;4983826;28;20134;-75
2023/01/14 11:11:36;;;;;;;8.07;1.50;;;;;;;8.74;99.27;95599.38;4954133;28;20046;-75
2023/01/14 11:14:17;;;;;;;2.92;1.10;;;;;;;8.84;100.00;95575.81;4971359;28;20501;-75
2023/01/14 11:16:43;;;;;;;2.15;1.08;;;;;;;9.07;95.53;95568.53;4980997;28;20050;-75
2023/01/14 11:19:14;;;;;;;2.97;1.20;;;;;;;8.88;100.00;95565.59;4990824;28;20050;-75
2023/01/14 11:21:45;;;;;;;4.43;1.10;;;;;;;9.03;99.53;95562.22;4984061;28;20046;-75
2023/01/14 11:24:23;;;;;;;3.10;1.83;;;;;;;8.37;99.10;95555.59;4970245;28;20489;-75
2023/01/14 11:26:50;;;;;;;2.38;1.02;;;;;;;8.43;100.00;95552.00;4983024;28;20045;-74
2023/01/14 11:29:27;;;;;;;3.33;1.05;;;;;;;8.40;100.00;95539.34;5002255;28;20042;-76
2023/01/14 11:32:04;;;;;;;4.82;1.08;;;;;;;8.26;100.00;95533.00;4971218;28;20043;-74
2023/01/14 11:34:41;;;;;;;6.78;1.17;;;;;;;8.42;100.00;95521.56;4971170;28;20051;-75
2023/01/14 11:37:10;;;;;;;1.77;1.00;;;;;;;8.18;94.11;95517.75;4983241;28;20046;-75
2023/01/14 11:39:38;;;;;;;3.83;1.05;;;;;;;7.90;98.27;95509.19;4986085;28;20101;-75
2023/01/14 11:42:34;;;;;;;3.45;1.23;;;;;;;7.98;100.00;95506.09;4994420;28;20089;-75
2023/01/14 11:45:11;;;;;;;3.65;1.15;;;;;;;7.90;100.00;95503.94;4955513;28;20113;-75
2023/01/14 11:47:56;;;;;;;2.28;1.00;;;;;;;7.84;100.00;95499.72;4986610;28;20061;-74
2023/01/14 11:50:22;;;;;;;3.17;1.20;;;;;;;8.00;100.00;95497.97;5006410;28;20076;-75
2023/01/14 11:53:15;;;;;;;2.50;1.20;;;;;;;7.86;100.00;95497.63;4977627;28;20093;-75
2023/01/14 11:55:41;;;;;;;2.28;1.42;;;;;;;7.84;100.00;95494.47;4974735;28;20047;-75
2023/01/14 11:58:22;;;;;;;3.42;1.60;;;;;;;7.98;100.00;95485.91;4984678;28;20046;-75
2023/01/14 12:00:54;;;;;;;5.45;1.90;;;;;;;8.03;100.00;95482.56;4977341;28;20045;-75
2023/01/14 12:03:34;;;;;;;2.40;0.93;;;;;;;8.01;99.26;95478.59;4995010;28;20065;-76
2023/01/14 12:06:03;;;;;;;3.63;2.08;;;;;;;7.97;89.18;95473.06;4995439;28;20578;-74
2023/01/14 12:08:32;;;;;;;1.80;1.00;;;;;;;7.91;96.98;95463.59;4992582;28;20042;-74
2023/01/14 12:11:01;;;;;;;2.58;1.33;;;;;;;7.80;96.92;95458.31;4984890;28;20050;-74